Time;durP1;ratioP1;P1;durP2;ratioP2;P2;SDS_P1;SDS_P2;PMS_P1;PMS_P2;Temp;Humidity;BMP_temperature;BMP_pressure;BME280_temperature;BME280_humidity;BME280_pressure;Samples;Min_cycle;Max_cycle;Signal;HPM_P1;HPM_P2
2024/01/11 00:00:14;;;;;;;72.72;31.83;;;-1.90;81.40;;;;;;5027073;28;20128;-60
2024/01/11 00:02:39;;;;;;;76.50;33.38;;;-1.90;81.50;;;;;;5031715;28;20029;-61
2024/01/11 00:05:06;;;;;;;74.10;31.92;;;-1.90;81.60;;;;;;5026886;28;20044;-60
2024/01/11 00:07:32;;;;;;;71.20;32.30;;;-1.90;81.60;;;;;;5034239;28;20056;-61
2024/01/11 00:09:58;;;;;;;76.00;33.15;;;-1.90;82.50;;;;;;5025416;28;20404;-61
2024/01/11 00:12:23;;;;;;;75.55;32.78;;;-1.90;81.60;;;;;;5023345;28;20041;-61
2024/01/11 00:14:49;;;;;;;77.38;34.13;;;-1.90;81.60;;;;;;5029969;28;20528;-61
2024/01/11 00:17:15;;;;;;;79.43;34.33;;;-1.90;81.60;;;;;;5028832;28;20052;-61
2024/01/11 00:19:41;;;;;;;69.05;30.27;;;-1.90;81.70;;;;;;5027527;28;20044;-61
2024/01/11 00:22:07;;;;;;;81.05;34.67;;;-1.90;81.80;;;;;;5036045;28;20112;-60
2024/01/11 00:24:32;;;;;;;75.72;32.72;;;-1.90;81.90;;;;;;5032687;28;20057;-60
2024/01/11 00:26:58;;;;;;;79.15;34.35;;;-1.90;82.10;;;;;;5032013;28;20084;-59
2024/01/11 00:29:23;;;;;;;75.60;32.63;;;-1.90;82.00;;;;;;5025475;28;20116;-60
2024/01/11 00:31:49;;;;;;;76.05;32.15;;;-1.90;82.20;;;;;;5029005;28;20029;-61
2024/01/11 00:34:14;;;;;;;74.97;33.08;;;-1.90;82.30;;;;;;5033984;28;20055;-61
2024/01/11 00:36:40;;;;;;;73.75;32.63;;;-1.90;82.50;;;;;;5030028;28;20040;-61
2024/01/11 00:39:06;;;;;;;70.72;31.20;;;-1.90;82.50;;;;;;5022867;28;20040;-60
2024/01/11 00:41:31;;;;;;;68.60;30.92;;;-1.90;82.50;;;;;;5033634;28;20564;-61
2024/01/11 00:43:57;;;;;;;69.32;30.73;;;-1.90;82.60;;;;;;5038309;28;20034;-60
2024/01/11 00:46:22;;;;;;;75.93;32.10;;;-1.90;82.60;;;;;;5032744;28;20062;-61
2024/01/11 00:48:48;;;;;;;76.68;31.55;;;-1.90;82.70;;;;;;5029750;28;20120;-61
2024/01/11 00:51:15;;;;;;;74.05;31.55;;;-2.00;82.70;;;;;;5035180;28;20510;-60
2024/01/11 00:53:40;;;;;;;73.57;30.42;;;-2.00;82.90;;;;;;5035629;28;20040;-61
2024/01/11 00:56:14;;;;;;;72.43;32.08;;;-2.00;83.00;;;;;;5029199;28;20025;-60
2024/01/11 00:58:40;;;;;;;70.13;30.65;;;-2.00;83.20;;;;;;5032183;28;20041;-60
2024/01/11 01:01:09;;;;;;;72.15;30.73;;;-2.00;83.30;;;;;;5024513;28;20049;-61
2024/01/11 01:03:35;;;;;;;66.20;28.83;;;-2.00;83.50;;;;;;5032674;28;20038;-60
2024/01/11 01:06:01;;;;;;;72.72;30.83;;;-2.10;83.60;;;;;;5032812;28;20090;-60
2024/01/11 01:08:27;;;;;;;72.60;31.35;;;-2.10;83.60;;;;;;5030680;28;20126;-60
2024/01/11 01:10:52;;;;;;;65.45;29.67;;;-2.00;83.80;;;;;;5036142;28;20147;-61
2024/01/11 01:13:18;;;;;;;81.13;32.47;;;-2.00;83.90;;;;;;5027010;28;20504;-61
2024/01/11 01:15:43;;;;;;;73.55;31.42;;;-2.00;84.00;;;;;;5033371;28;20025;-61
2024/01/11 01:18:09;;;;;;;72.45;30.23;;;-2.00;83.90;;;;;;5032309;28;20029;-59
2024/01/11 01:20:35;;;;;;;72.10;30.75;;;-2.00;83.90;;;;;;5022543;28;20107;-61
2024/01/11 01:23:00;;;;;;;79.05;33.30;;;-2.00;84.00;;;;;;5028832;28;20030;-60
2024/01/11 01:25:26;;;;;;;77.82;34.00;;;-2.00;84.00;;;;;;5032918;28;20049;-61
2024/01/11 01:27:52;;;;;;;77.50;33.20;;;-2.00;84.00;;;;;;5026958;28;20036;-61
2024/01/11 01:30:17;;;;;;;74.97;31.42;;;-2.00;83.90;;;;;;5031349;28;20243;-60
2024/01/11 01:32:43;;;;;;;75.38;31.25;;;-2.00;83.90;;;;;;5022187;28;20029;-59
2024/01/11 01:35:08;;;;;;;72.65;31.20;;;-1.90;84.00;;;;;;5031210;28;20121;-60
2024/01/11 01:37:34;;;;;;;69.43;29.92;;;-1.90;84.00;;;;;;5029846;28;20405;-62
2024/01/11 01:39:59;;;;;;;72.68;31.45;;;-1.90;83.90;;;;;;5025834;28;20089;-59
2024/01/11 01:42:25;;;;;;;71.30;32.08;;;-2.00;83.90;;;;;;5031059;28;20048;-61
2024/01/11 01:44:50;;;;;;;75.30;32.08;;;-2.00;84.00;;;;;;5027476;28;20505;-60
2024/01/11 01:47:17;;;;;;;76.93;32.50;;;-2.00;84.10;;;;;;5036152;28;20076;-61
2024/01/11 01:49:44;;;;;;;80.47;32.72;;;-2.00;84.20;;;;;;5029946;28;20022;-61
2024/01/11 01:52:14;;;;;;;75.63;31.20;;;-1.90;84.30;;;;;;5029099;28;20053;-61
2024/01/11 01:54:39;;;;;;;71.40;29.70;;;-2.00;84.20;;;;;;5031132;28;20087;-60
2024/01/11 01:57:07;;;;;;;72.82;30.30;;;-1.90;84.30;;;;;;5026867;28;20038;-60
2024/01/11 01:59:33;;;;;;;74.00;29.80;;;-1.90;84.40;;;;;;5028504;28;20037;-60
2024/01/11 02:01:59;;;;;;;78.55;31.40;;;-1.90;84.50;;;;;;5033164;28;20405;-60
2024/01/11 02:04:25;;;;;;;73.55;32.20;;;-1.90;84.60;;;;;;5023411;28;20133;-61
2024/01/11 02:06:52;;;;;;;68.60;29.75;;;-1.90;84.50;;;;;;5030237;28;20505;-59
2024/01/11 02:09:18;;;;;;;75.80;32.03;;;-1.90;84.40;;;;;;5025150;28;20045;-59
2024/01/11 02:11:45;;;;;;;69.10;29.83;;;-1.80;84.50;;;;;;5028269;28;20075;-59
2024/01/11 02:14:11;;;;;;;76.20;32.00;;;-1.80;84.60;;;;;;5027954;28;20025;-61
2024/01/11 02:16:37;;;;;;;71.80;31.65;;;-1.80;84.40;;;;;;5032517;28;20048;-61
2024/01/11 02:19:05;;;;;;;72.32;30.20;;;-1.80;84.20;;;;;;5033317;28;20144;-61
2024/01/11 02:21:33;;;;;;;70.70;30.23;;;-1.80;84.10;;;;;;5024049;28;20034;-61
2024/01/11 02:24:06;;;;;;;68.90;30.65;;;-1.80;84.10;;;;;;5025769;28;20064;-59
2024/01/11 02:26:32;;;;;;;69.40;28.85;;;-1.90;84.00;;;;;;5029135;28;20561;-61
2024/01/11 02:28:57;;;;;;;69.60;28.65;;;-1.80;83.80;;;;;;5022954;28;20112;-61
2024/01/11 02:31:24;;;;;;;63.70;27.85;;;-1.90;83.80;;;;;;5032339;28;20083;-61
2024/01/11 02:33:51;;;;;;;61.90;26.88;;;-2.00;83.90;;;;;;5032650;28;20064;-61
2024/01/11 02:36:18;;;;;;;67.88;28.95;;;-2.00;84.00;;;;;;5022700;28;20065;-61
2024/01/11 02:38:44;;;;;;;72.50;29.52;;;-2.00;84.20;;;;;;5027548;28;20493;-59
2024/01/11 02:41:11;;;;;;;70.65;28.75;;;-2.00;84.40;;;;;;5023236;28;20079;-61
2024/01/11 02:43:36;;;;;;;70.38;28.85;;;-2.00;84.40;;;;;;5032101;28;20036;-61
2024/01/11 02:46:03;;;;;;;67.90;27.77;;;-2.00;84.20;;;;;;5029925;28;20033;-59
2024/01/11 02:48:31;;;;;;;67.10;28.70;;;-2.00;84.20;;;;;;5026337;28;20497;-59
2024/01/11 02:50:57;;;;;;;64.13;27.92;;;-2.10;84.20;;;;;;5028093;28;20116;-60
2024/01/11 02:53:23;;;;;;;68.07;28.65;;;-2.10;84.10;;;;;;5030785;28;20116;-61
2024/01/11 02:55:50;;;;;;;72.32;28.48;;;-2.10;84.20;;;;;;5027704;28;20025;-59
2024/01/11 02:58:16;;;;;;;72.40;29.30;;;-2.10;84.30;;;;;;5034470;28;20056;-61
2024/01/11 03:00:41;;;;;;;63.05;27.30;;;-2.10;84.40;;;;;;5028614;28;20057;-60
2024/01/11 03:03:07;;;;;;;68.60;28.88;;;-2.10;84.60;;;;;;5030288;28;20052;-61
2024/01/11 03:05:32;;;;;;;68.32;28.80;;;-2.10;84.60;;;;;;5028599;28;20073;-60
2024/01/11 03:07:58;;;;;;;65.82;28.85;;;-2.20;84.80;;;;;;5034078;28;20033;-59
2024/01/11 03:10:24;;;;;;;72.22;29.00;;;-2.20;84.70;;;;;;5029062;28;20041;-61
2024/01/11 03:12:50;;;;;;;66.85;28.10;;;-2.10;84.90;;;;;;5022763;28;20120;-59
2024/01/11 03:15:15;;;;;;;74.90;30.70;;;-2.10;84.80;;;;;;5033546;28;20120;-61
2024/01/11 03:17:41;;;;;;;67.70;28.98;;;-2.20;84.70;;;;;;5024785;28;20083;-59
2024/01/11 03:20:07;;;;;;;73.00;28.10;;;-2.10;84.60;;;;;;5030332;28;20482;-60
2024/01/11 03:22:33;;;;;;;67.10;28.40;;;-2.20;84.50;;;;;;5025420;28;20775;-59
2024/01/11 03:24:59;;;;;;;65.53;27.38;;;-2.20;84.50;;;;;;5021821;28;20576;-61
2024/01/11 03:27:24;;;;;;;58.50;26.05;;;-2.20;84.60;;;;;;5028142;28;20038;-61
2024/01/11 03:29:50;;;;;;;60.45;24.75;;;-2.20;84.70;;;;;;5028868;28;20071;-60
2024/01/11 03:32:16;;;;;;;60.65;24.90;;;-2.20;84.60;;;;;;5022554;28;20129;-61
2024/01/11 03:34:41;;;;;;;72.57;26.33;;;-2.20;84.60;;;;;;5028147;28;20041;-60
2024/01/11 03:37:07;;;;;;;61.00;25.80;;;-2.30;84.50;;;;;;5022274;28;20125;-59
2024/01/11 03:39:34;;;;;;;63.42;25.85;;;-2.30;84.50;;;;;;5030848;28;20501;-61
2024/01/11 03:41:59;;;;;;;62.88;26.27;;;-2.30;84.50;;;;;;5029629;28;20036;-61
2024/01/11 03:44:25;;;;;;;67.50;27.33;;;-2.30;84.40;;;;;;5024843;28;20532;-59
2024/01/11 03:46:51;;;;;;;68.18;28.15;;;-2.30;85.20;;;;;;5028381;28;20033;-60
2024/01/11 03:49:17;;;;;;;71.15;27.13;;;-2.40;84.20;;;;;;5026230;28;20045;-59
2024/01/11 03:51:42;;;;;;;72.22;27.05;;;-2.40;84.30;;;;;;5027665;28;20030;-59
2024/01/11 03:54:08;;;;;;;65.57;26.70;;;-2.40;84.40;;;;;;5033544;28;20055;-61
2024/01/11 03:56:37;;;;;;;67.00;28.25;;;-2.50;84.60;;;;;;5028980;28;20046;-60
2024/01/11 03:59:02;;;;;;;64.78;25.95;;;-2.50;84.60;;;;;;5030084;28;20038;-61
2024/01/11 04:01:28;;;;;;;67.68;27.63;;;-2.40;84.60;;;;;;5033852;28;20128;-59
2024/01/11 04:03:54;;;;;;;59.10;25.40;;;-2.50;84.70;;;;;;5031200;28;20284;-61
2024/01/11 04:06:21;;;;;;;59.47;23.83;;;-2.40;84.70;;;;;;5036848;28;20033;-60
2024/01/11 04:08:47;;;;;;;60.53;25.35;;;-2.40;84.70;;;;;;5031116;28;20056;-60
2024/01/11 04:11:13;;;;;;;59.22;24.95;;;-2.40;84.80;;;;;;5033376;28;20040;-59
2024/01/11 04:13:39;;;;;;;61.92;24.50;;;-2.40;84.70;;;;;;5031097;28;20410;-59
2024/01/11 04:16:08;;;;;;;58.50;22.83;;;-2.40;84.60;;;;;;5028810;28;20041;-61
2024/01/11 04:18:33;;;;;;;56.58;21.48;;;-2.40;84.60;;;;;;5033903;28;20042;-61
2024/01/11 04:20:59;;;;;;;53.28;21.80;;;-2.40;84.60;;;;;;5022711;28;20088;-60
2024/01/11 04:23:25;;;;;;;51.03;21.75;;;-2.40;84.40;;;;;;5033832;28;20103;-61
2024/01/11 04:25:51;;;;;;;55.65;21.98;;;-2.40;84.20;;;;;;5034996;28;20451;-61
2024/01/11 04:28:17;;;;;;;51.72;21.63;;;-2.40;84.20;;;;;;5039535;28;20083;-60
2024/01/11 04:30:43;;;;;;;53.28;20.80;;;-2.40;84.20;;;;;;5033204;28;20029;-60
2024/01/11 04:33:10;;;;;;;54.72;20.83;;;-2.40;84.20;;;;;;5022835;28;20122;-61
2024/01/11 04:35:38;;;;;;;58.42;23.38;;;-2.50;84.00;;;;;;5031328;28;20493;-60
2024/01/11 04:38:04;;;;;;;50.42;20.65;;;-2.50;84.10;;;;;;5029526;28;20047;-60
2024/01/11 04:40:30;;;;;;;52.92;21.70;;;-2.40;84.20;;;;;;5027910;28;20315;-60
2024/01/11 04:42:55;;;;;;;55.85;23.48;;;-2.50;84.10;;;;;;5028996;28;20041;-60
2024/01/11 04:45:21;;;;;;;51.20;20.65;;;-2.50;84.20;;;;;;5028096;28;20041;-61
2024/01/11 04:47:47;;;;;;;60.10;23.83;;;-2.50;84.10;;;;;;5033417;28;20388;-61
2024/01/11 04:50:12;;;;;;;50.63;20.27;;;-2.60;84.10;;;;;;5027543;28;20033;-60
2024/01/11 04:52:38;;;;;;;52.65;22.13;;;-2.60;84.20;;;;;;5023438;28;20400;-61
2024/01/11 04:55:04;;;;;;;52.75;21.42;;;-2.60;84.40;;;;;;5028451;28;20034;-60
2024/01/11 04:57:29;;;;;;;52.55;21.30;;;-2.60;84.40;;;;;;5034026;28;20049;-61
2024/01/11 04:59:55;;;;;;;57.22;21.35;;;-2.60;84.40;;;;;;5031227;28;20037;-61
2024/01/11 05:02:21;;;;;;;50.85;21.23;;;-2.60;84.40;;;;;;5034428;28;20412;-61
2024/01/11 05:04:47;;;;;;;52.97;21.08;;;-2.60;84.50;;;;;;5031910;28;20026;-61
2024/01/11 05:07:13;;;;;;;54.78;20.40;;;-2.60;84.50;;;;;;5032776;28;20113;-59
2024/01/11 05:09:38;;;;;;;53.60;20.45;;;-2.60;84.60;;;;;;5025374;28;20203;-61
2024/01/11 05:12:04;;;;;;;54.45;21.83;;;-2.60;84.60;;;;;;5023192;28;20041;-60
2024/01/11 05:14:30;;;;;;;54.63;21.42;;;-2.60;84.70;;;;;;5033702;28;20610;-61
2024/01/11 05:16:56;;;;;;;61.72;25.60;;;-2.60;84.90;;;;;;5026887;28;20049;-60
2024/01/11 05:19:21;;;;;;;55.05;21.38;;;-2.60;84.80;;;;;;5028514;28;20171;-60
2024/01/11 05:21:47;;;;;;;53.92;20.25;;;-2.50;84.70;;;;;;5026509;28;20033;-59
2024/01/11 05:24:13;;;;;;;49.92;20.13;;;-2.50;84.60;;;;;;5029423;28;20115;-60
2024/01/11 05:26:38;;;;;;;54.92;20.63;;;-2.50;84.50;;;;;;5030454;28;20033;-60
2024/01/11 05:29:04;;;;;;;55.40;20.60;;;-2.50;84.60;;;;;;5019898;28;20496;-61
2024/01/11 05:31:30;;;;;;;50.78;19.90;;;-2.50;84.70;;;;;;5030944;28;20042;-60
2024/01/11 05:33:56;;;;;;;54.60;21.15;;;-2.50;84.80;;;;;;5025559;28;20044;-62
2024/01/11 05:36:21;;;;;;;54.50;20.67;;;-2.50;84.70;;;;;;5024030;28;20034;-63
2024/01/11 05:38:47;;;;;;;54.95;20.67;;;-2.50;84.90;;;;;;5025325;28;20056;-62
2024/01/11 05:41:12;;;;;;;55.55;21.17;;;-2.50;84.80;;;;;;5020837;28;20498;-63
2024/01/11 05:43:40;;;;;;;60.33;21.27;;;-2.50;84.90;;;;;;5029668;28;20253;-61
2024/01/11 05:46:06;;;;;;;50.35;19.88;;;-2.50;84.90;;;;;;5027562;28;20068;-61
2024/01/11 05:48:32;;;;;;;55.50;21.27;;;-2.50;85.10;;;;;;5027050;28;20033;-63
2024/01/11 05:50:58;;;;;;;58.95;21.02;;;-2.50;86.00;;;;;;5023622;28;20037;-63
2024/01/11 05:53:24;;;;;;;55.42;20.00;;;-2.40;85.20;;;;;;5022650;28;20040;-63
2024/01/11 05:55:50;;;;;;;59.17;21.05;;;-2.40;85.20;;;;;;5027782;28;20079;-62
2024/01/11 05:58:15;;;;;;;54.47;19.98;;;-2.40;85.20;;;;;;5029047;28;20033;-61
2024/01/11 06:00:41;;;;;;;62.80;21.85;;;-2.40;85.30;;;;;;5020908;28;20041;-63
2024/01/11 06:03:07;;;;;;;58.80;22.27;;;-2.30;85.30;;;;;;5027898;28;20521;-62
2024/01/11 06:05:33;;;;;;;58.35;22.10;;;-2.30;85.30;;;;;;5022259;28;20033;-62
2024/01/11 06:07:59;;;;;;;62.20;23.85;;;-2.30;85.30;;;;;;5030117;28;20554;-62
2024/01/11 06:10:24;;;;;;;64.05;23.38;;;-2.30;85.30;;;;;;5030075;28;20068;-61
2024/01/11 06:12:50;;;;;;;59.10;22.13;;;-2.30;85.30;;;;;;5020255;28;20030;-62
2024/01/11 06:15:16;;;;;;;58.95;21.40;;;-2.30;85.20;;;;;;5025050;28;20517;-61
2024/01/11 06:17:41;;;;;;;57.90;21.42;;;-2.30;85.10;;;;;;5023702;28;20029;-63
2024/01/11 06:20:07;;;;;;;60.80;21.70;;;-2.30;85.20;;;;;;5021020;28;20030;-62
2024/01/11 06:22:33;;;;;;;61.78;22.67;;;-2.20;85.30;;;;;;5032751;28;20504;-62
2024/01/11 06:24:59;;;;;;;62.80;22.55;;;-2.20;85.30;;;;;;5022753;28;20486;-62
2024/01/11 06:27:25;;;;;;;67.00;23.58;;;-2.20;85.40;;;;;;5029938;28;20040;-63
2024/01/11 06:29:50;;;;;;;71.95;24.73;;;-2.20;85.40;;;;;;5023550;28;20029;-62
2024/01/11 06:32:16;;;;;;;73.78;26.10;;;-2.20;85.40;;;;;;5023922;28;20404;-61
2024/01/11 06:34:45;;;;;;;75.82;26.15;;;-2.20;85.60;;;;;;5028741;28;20100;-61
2024/01/11 06:37:11;;;;;;;73.28;25.13;;;-2.20;85.70;;;;;;5019159;28;20128;-61
2024/01/11 06:39:36;;;;;;;69.07;23.95;;;-2.20;85.80;;;;;;5027247;28;20441;-62
2024/01/11 06:42:02;;;;;;;69.35;25.15;;;-2.20;85.80;;;;;;5026293;28;20500;-61
2024/01/11 06:44:28;;;;;;;70.72;23.63;;;-2.10;85.80;;;;;;5017661;28;20181;-62
2024/01/11 06:46:53;;;;;;;77.40;25.70;;;-2.10;85.80;;;;;;5027142;28;20042;-63
2024/01/11 06:49:19;;;;;;;68.13;24.35;;;-2.10;85.80;;;;;;5020576;28;20040;-62
2024/01/11 06:51:45;;;;;;;68.20;23.90;;;-2.10;85.60;;;;;;5027400;28;20556;-62
2024/01/11 06:54:10;;;;;;;62.75;22.73;;;-2.00;85.60;;;;;;5027188;28;20053;-62
2024/01/11 06:56:36;;;;;;;71.05;23.45;;;-2.00;85.60;;;;;;5025342;28;20499;-62
2024/01/11 06:59:01;;;;;;;70.53;23.27;;;-2.00;85.80;;;;;;5025673;28;20088;-61
2024/01/11 07:01:27;;;;;;;69.97;24.42;;;-2.00;85.80;;;;;;5021422;28;20034;-62
2024/01/11 07:03:53;;;;;;;69.28;23.25;;;-2.00;85.90;;;;;;5026326;28;20471;-62
2024/01/11 07:06:19;;;;;;;75.53;24.45;;;-2.00;85.80;;;;;;5028271;28;20108;-63
2024/01/11 07:08:45;;;;;;;64.60;22.30;;;-1.90;85.60;;;;;;5023891;28;20029;-61
2024/01/11 07:11:11;;;;;;;72.15;25.02;;;-2.00;85.60;;;;;;5026792;28;20073;-62
2024/01/11 07:13:36;;;;;;;72.47;24.95;;;-2.00;86.50;;;;;;5024908;28;20500;-61
2024/01/11 07:16:03;;;;;;;81.30;26.60;;;-2.00;85.80;;;;;;5022025;28;20080;-62
2024/01/11 07:18:28;;;;;;;78.53;26.75;;;-2.00;85.60;;;;;;5027370;28;20044;-62
2024/01/11 07:20:56;;;;;;;77.88;26.20;;;-2.00;85.60;;;;;;5015452;28;20037;-60
2024/01/11 07:23:22;;;;;;;76.80;26.08;;;-2.00;85.80;;;;;;5032585;28;20420;-63
2024/01/11 07:25:47;;;;;;;78.82;27.08;;;-2.00;85.80;;;;;;5022215;28;20033;-61
2024/01/11 07:28:13;;;;;;;79.85;27.77;;;-2.00;85.90;;;;;;5023293;28;20096;-61
2024/01/11 07:30:39;;;;;;;81.07;27.27;;;-2.00;86.00;;;;;;5031843;28;20037;-60
2024/01/11 07:33:05;;;;;;;74.20;24.77;;;-2.00;85.90;;;;;;5017079;28;20072;-61
2024/01/11 07:35:31;;;;;;;78.60;27.35;;;-2.00;86.00;;;;;;5029113;28;20444;-61
2024/01/11 07:37:57;;;;;;;78.55;25.23;;;-2.00;86.00;;;;;;5023528;28;20045;-59
2024/01/11 07:40:23;;;;;;;69.38;24.27;;;-2.00;86.10;;;;;;5021640;28;20052;-61
2024/01/11 07:42:49;;;;;;;75.82;25.63;;;-2.00;86.30;;;;;;5026549;28;20464;-61
2024/01/11 07:45:15;;;;;;;85.38;27.90;;;-2.00;86.40;;;;;;5019353;28;20065;-62
2024/01/11 07:47:40;;;;;;;86.25;28.05;;;-2.00;86.30;;;;;;5027585;28;20058;-63
2024/01/11 07:50:09;;;;;;;79.10;27.17;;;-1.90;86.30;;;;;;5025726;28;20087;-62
2024/01/11 07:52:35;;;;;;;74.70;26.20;;;-1.90;86.30;;;;;;5020742;28;20030;-62
2024/01/11 07:55:06;;;;;;;72.80;26.40;;;-1.90;86.40;;;;;;5025580;28;20041;-63
2024/01/11 07:57:33;;;;;;;74.80;25.67;;;-1.90;86.40;;;;;;5017546;28;20064;-62
2024/01/11 08:00:01;;;;;;;77.53;25.98;;;-1.90;86.30;;;;;;5024375;28;20076;-61
2024/01/11 08:02:27;;;;;;;70.88;27.60;;;-1.90;86.30;;;;;;5028194;28;20037;-60
2024/01/11 08:04:52;;;;;;;89.45;28.25;;;-1.90;86.50;;;;;;5022248;28;20026;-61
2024/01/11 08:07:18;;;;;;;71.30;26.20;;;-1.90;86.30;;;;;;5027590;28;20030;-62
2024/01/11 08:09:45;;;;;;;70.50;27.20;;;-1.90;86.10;;;;;;5025216;28;20033;-62
2024/01/11 08:12:14;;;;;;;80.72;28.20;;;-1.90;86.20;;;;;;5023478;28;20049;-61
2024/01/11 08:14:41;;;;;;;81.15;27.30;;;-1.90;86.30;;;;;;5020599;28;20035;-62
2024/01/11 08:17:08;;;;;;;72.05;26.45;;;-1.80;86.40;;;;;;5017793;28;20034;-63
2024/01/11 08:19:33;;;;;;;78.65;27.13;;;-1.90;86.30;;;;;;5026125;28;20121;-62
2024/01/11 08:21:59;;;;;;;78.90;29.15;;;-1.80;86.30;;;;;;5023569;28;20140;-63
2024/01/11 08:24:25;;;;;;;79.10;26.83;;;-1.80;86.30;;;;;;5024991;28;20497;-63
2024/01/11 08:26:51;;;;;;;73.20;26.42;;;-1.80;86.20;;;;;;5026138;28;20026;-63
2024/01/11 08:29:18;;;;;;;73.45;26.85;;;-1.80;86.10;;;;;;5019006;28;20036;-63
2024/01/11 08:31:44;;;;;;;77.88;27.67;;;-1.80;86.20;;;;;;5022560;28;20397;-62
2024/01/11 08:34:10;;;;;;;80.22;28.83;;;-1.80;86.10;;;;;;5025952;28;20044;-62
2024/01/11 08:36:38;;;;;;;77.80;27.02;;;-1.80;86.10;;;;;;5020412;28;20038;-63
2024/01/11 08:39:07;;;;;;;76.15;28.30;;;-1.80;86.00;;;;;;5020763;28;20048;-62
2024/01/11 08:41:34;;;;;;;80.88;27.63;;;-1.80;86.10;;;;;;5021494;28;20040;-62
2024/01/11 08:44:00;;;;;;;75.63;29.30;;;-1.80;86.10;;;;;;5020667;28;20038;-61
2024/01/11 08:46:26;;;;;;;80.10;28.60;;;-1.80;86.10;;;;;;5031704;28;20045;-63
2024/01/11 08:48:52;;;;;;;73.90;27.02;;;-1.80;86.10;;;;;;5021860;28;20041;-63
2024/01/11 08:51:18;;;;;;;80.40;28.40;;;-1.80;86.10;;;;;;5031324;28;20037;-62
2024/01/11 08:53:44;;;;;;;78.63;28.20;;;-1.70;86.30;;;;;;5022927;28;20034;-62
2024/01/11 08:56:10;;;;;;;74.40;26.65;;;-1.80;86.30;;;;;;5028320;28;20032;-61
2024/01/11 08:58:36;;;;;;;74.70;27.35;;;-1.70;86.50;;;;;;5027881;28;20532;-63
2024/01/11 09:01:02;;;;;;;75.93;28.00;;;-1.70;86.50;;;;;;5020133;28;20030;-61
2024/01/11 09:03:28;;;;;;;79.85;28.65;;;-1.70;86.60;;;;;;5022835;28;20033;-62
2024/01/11 09:05:56;;;;;;;85.43;29.35;;;-1.70;86.60;;;;;;5026892;28;20981;-62
2024/01/11 09:08:22;;;;;;;77.68;28.20;;;-1.70;86.50;;;;;;5023502;28;20057;-61
2024/01/11 09:10:48;;;;;;;83.18;29.25;;;-1.60;86.40;;;;;;5026784;28;20501;-62
2024/01/11 09:13:15;;;;;;;75.97;27.25;;;-1.60;86.30;;;;;;5023526;28;20440;-62
2024/01/11 09:15:41;;;;;;;73.53;28.80;;;-1.60;86.30;;;;;;5026044;28;20091;-62
2024/01/11 09:18:07;;;;;;;74.65;27.67;;;-1.60;86.30;;;;;;5024358;28;20034;-63
2024/01/11 09:20:33;;;;;;;73.32;27.10;;;-1.60;86.40;;;;;;5016879;28;20327;-62
2024/01/11 09:22:59;;;;;;;84.00;27.50;;;-1.70;86.30;;;;;;5025891;28;20089;-61
2024/01/11 09:25:24;;;;;;;80.65;28.85;;;-1.60;86.50;;;;;;5020278;28;20655;-60
2024/01/11 09:27:50;;;;;;;85.15;29.73;;;-1.60;86.50;;;;;;5025089;28;20100;-62
2024/01/11 09:30:15;;;;;;;95.43;33.63;;;-1.60;86.50;;;;;;5028553;28;20037;-62
2024/01/11 09:32:41;;;;;;;109.32;37.88;;;-1.60;86.40;;;;;;5022226;28;20112;-62
2024/01/11 09:35:07;;;;;;;103.65;37.13;;;-1.70;86.40;;;;;;5024000;28;20026;-62
2024/01/11 09:37:33;;;;;;;104.93;36.47;;;-1.70;86.20;;;;;;5020177;28;20401;-60
2024/01/11 09:40:00;;;;;;;100.72;36.17;;;-1.70;86.40;;;;;;5026494;28;20041;-62
2024/01/11 09:42:26;;;;;;;111.15;39.17;;;-1.70;86.40;;;;;;5026390;28;20041;-62
2024/01/11 09:44:54;;;;;;;100.95;36.08;;;-1.70;86.40;;;;;;5022912;28;20509;-60
2024/01/11 09:47:21;;;;;;;113.30;37.50;;;-1.70;86.30;;;;;;5029717;28;20401;-59
2024/01/11 09:49:50;;;;;;;99.68;35.50;;;-1.70;86.50;;;;;;5022244;28;20025;-63
2024/01/11 09:52:18;;;;;;;99.20;34.88;;;-1.70;86.60;;;;;;5026230;28;20099;-60
2024/01/11 09:54:45;;;;;;;95.53;36.20;;;-1.80;86.70;;;;;;5024663;28;20037;-58
2024/01/11 09:57:11;;;;;;;97.40;36.22;;;-1.70;86.90;;;;;;5022118;28;20144;-60
2024/01/11 09:59:37;;;;;;;89.22;33.97;;;-1.70;87.00;;;;;;5025232;28;20585;-63
2024/01/11 10:02:03;;;;;;;99.80;34.90;;;-1.70;87.00;;;;;;5021444;28;20445;-61
2024/01/11 10:04:29;;;;;;;92.43;34.55;;;-1.70;87.00;;;;;;5019123;28;20034;-62
2024/01/11 10:06:56;;;;;;;104.10;37.35;;;-1.60;87.00;;;;;;5023594;28;20434;-63
2024/01/11 10:09:22;;;;;;;102.70;36.63;;;-1.60;86.90;;;;;;5025194;28;20302;-63
2024/01/11 10:11:49;;;;;;;92.40;34.83;;;-1.60;86.60;;;;;;5023857;28;20104;-60
2024/01/11 10:14:14;;;;;;;105.93;36.58;;;-1.60;86.60;;;;;;5027219;28;20228;-61
2024/01/11 10:16:42;;;;;;;93.93;35.83;;;-1.60;86.60;;;;;;5022542;28;20053;-62
2024/01/11 10:19:09;;;;;;;90.40;32.80;;;-1.60;86.50;;;;;;5022459;28;20034;-62
2024/01/11 10:21:39;;;;;;;97.25;34.75;;;-1.60;86.50;;;;;;5016619;28;20113;-61
2024/01/11 10:24:04;;;;;;;96.82;35.60;;;-1.60;86.50;;;;;;5022255;28;20113;-61
2024/01/11 10:26:30;;;;;;;91.32;34.22;;;-1.60;86.60;;;;;;5023247;28;20108;-61
2024/01/11 10:29:02;;;;;;;90.28;34.78;;;-1.60;86.70;;;;;;5018699;28;20117;-61
2024/01/11 10:31:30;;;;;;;91.05;34.78;;;-1.50;86.90;;;;;;5029017;28;20533;-61
2024/01/11 10:33:57;;;;;;;91.32;35.45;;;-1.50;86.90;;;;;;5020873;28;20045;-61
2024/01/11 10:36:23;;;;;;;96.57;34.90;;;-1.50;86.70;;;;;;5025881;28;20117;-62
2024/01/11 10:38:49;;;;;;;90.35;35.00;;;-1.40;86.50;;;;;;5022724;28;20053;-62
2024/01/11 10:41:19;;;;;;;97.88;35.72;;;-1.50;86.50;;;;;;5021683;28;20022;-60
2024/01/11 10:43:48;;;;;;;91.03;35.22;;;-1.40;86.60;;;;;;5024863;28;20535;-61
2024/01/11 10:46:14;;;;;;;93.40;35.72;;;-1.40;86.50;;;;;;5025484;28;20064;-60
2024/01/11 10:48:44;;;;;;;98.60;37.15;;;-1.40;86.50;;;;;;5022650;28;20029;-62
2024/01/11 10:51:14;;;;;;;99.90;35.33;;;-1.40;86.50;;;;;;5022464;28;20048;-60
2024/01/11 10:53:47;;;;;;;107.57;40.38;;;-1.40;86.30;;;;;;5027609;28;20059;-61
2024/01/11 10:56:15;;;;;;;95.57;35.28;;;-1.40;86.10;;;;;;5022889;28;20065;-62
2024/01/11 10:58:42;;;;;;;98.13;36.17;;;-1.50;86.00;;;;;;5024284;28;20507;-61
2024/01/11 11:01:12;;;;;;;98.78;36.45;;;-1.50;86.10;;;;;;5020866;28;20582;-61
2024/01/11 11:03:39;;;;;;;99.40;35.65;;;-1.50;86.30;;;;;;5024310;28;20030;-62
2024/01/11 11:06:06;;;;;;;96.93;34.95;;;-1.50;86.50;;;;;;5025399;28;20065;-62
2024/01/11 11:08:32;;;;;;;99.93;37.55;;;-1.40;86.80;;;;;;5004375;28;20522;-61
2024/01/11 11:10:58;;;;;;;98.10;36.42;;;-1.40;87.70;;;;;;5020738;28;20038;-61
2024/01/11 11:13:24;;;;;;;94.72;36.42;;;-1.40;86.60;;;;;;5023990;28;20041;-61
2024/01/11 11:15:51;;;;;;;97.28;35.38;;;-1.40;86.60;;;;;;5021282;28;20045;-62
2024/01/11 11:18:18;;;;;;;90.45;35.70;;;-1.40;86.60;;;;;;5024670;28;20026;-62
2024/01/11 11:20:44;;;;;;;98.47;36.85;;;-1.40;86.90;;;;;;5017054;28;20417;-59
2024/01/11 11:23:14;;;;;;;91.57;34.47;;;-1.30;86.80;;;;;;5020862;28;20359;-60
2024/01/11 11:25:40;;;;;;;97.68;37.17;;;-1.30;86.90;;;;;;5020277;28;20068;-62
2024/01/11 11:28:06;;;;;;;95.20;36.65;;;-1.30;86.80;;;;;;5025065;28;20050;-62
2024/01/11 11:30:40;;;;;;;103.30;39.20;;;-1.20;86.70;;;;;;5024881;28;20029;-62
2024/01/11 11:33:24;;;;;;;96.38;36.70;;;-1.20;86.50;;;;;;5017997;28;20042;-63
2024/01/11 11:35:54;;;;;;;;;;;-1.20;86.40;;;;;;5022697;28;20095;-62
2024/01/11 11:38:30;;;;;;;93.43;35.20;;;-1.20;86.60;;;;;;5022672;28;20047;-62
2024/01/11 11:41:00;;;;;;;92.28;35.08;;;-1.20;86.20;;;;;;5019617;28;20405;-62
2024/01/11 11:43:28;;;;;;;95.38;35.42;;;-1.20;86.10;;;;;;5024398;28;20033;-62
2024/01/11 11:45:54;;;;;;;93.75;35.33;;;-1.30;86.30;;;;;;5022662;28;20042;-62
2024/01/11 11:48:29;;;;;;;91.00;34.58;;;-1.30;86.60;;;;;;5022444;28;20037;-62
2024/01/11 11:51:16;;;;;;;95.00;36.35;;;-1.20;86.80;;;;;;5021196;28;20096;-62
2024/01/11 11:53:42;;;;;;;94.72;35.85;;;-1.20;87.00;;;;;;5018837;28;20032;-62
2024/01/11 11:56:10;;;;;;;92.95;35.88;;;-1.20;86.80;;;;;;5021829;28;20026;-62
2024/01/11 11:58:36;;;;;;;91.63;34.03;;;-1.10;86.70;;;;;;5024088;28;20040;-62
2024/01/11 12:01:03;;;;;;;89.30;33.33;;;-1.10;86.50;;;;;;5018343;28;20034;-62
2024/01/11 12:03:40;;;;;;;83.20;33.38;;;-1.10;86.40;;;;;;5024829;28;20045;-61
2024/01/11 12:06:14;;;;;;;91.75;35.13;;;-1.10;86.60;;;;;;5024479;28;20070;-63
2024/01/11 12:08:42;;;;;;;91.30;34.22;;;-1.10;86.60;;;;;;5027687;28;20040;-62
2024/01/11 12:11:08;;;;;;;93.25;36.35;;;-1.10;86.50;;;;;;5020078;28;20557;-63
2024/01/11 12:13:33;;;;;;;100.22;38.20;;;-1.10;86.30;;;;;;5023665;28;20136;-62
2024/01/11 12:15:59;;;;;;;91.93;35.38;;;-1.10;86.20;;;;;;5017029;28;20034;-61
2024/01/11 12:18:25;;;;;;;97.03;36.70;;;-1.10;86.30;;;;;;5028454;28;20053;-62
2024/01/11 12:20:52;;;;;;;90.78;35.42;;;-1.10;86.40;;;;;;5019268;28;20123;-61